Aviation Digital Data Service (ADDS)

Output produced by METARs form (0328 UTC 30 May 2017)
found at http://www.aviationweather.gov/adds/metars/
 
TAF COR MPPA 292300Z 3000/3106 35004KT 9999 FEW018 BKN090 
     TEMPO 3006/3010 00000KT 
     TEMPO 3015/3018 8000 -RA 
     PROB40 
     TEMPO 3019/3023 19006KT 5000 -TSRA SCT015CB BKN080
       
TAF MPDA 291710Z 2918/3006 20009KT 9999 SCT020 SCT100 
     PROB40 
     TEMPO 2919/2923 5000 -TSRA FEW015CB SCT090 
     BECMG 2923/3001 00000KT
       
TAF MPMG 291710Z 2918/3006 18008KT 9999 FEW020 SCT100 
     PROB40 
     TEMPO 2919/2923 6000 -TSRA FEW015CB SCT100 
     BECMG 2923/3001 00000KT
       
TAF COR MPTO 292300Z 3000/3106 27004KT 9999 SCT018 BKN090 
     TEMPO 3006/3010 00000KT 
     TEMPO 3015/3018 04006KT 8000 -RA 
     PROB40 
     TEMPO 3018/3022 18006KT 5000 -TSRA SCT015CB BKN080